sensor_id;sensor_type;location;lat;lon;timestamp;pressure;altitude;pressure_sealevel;temperature
26158;BMP280;67284;44.782;10.282;2023-11-21T00:00:15;100358.59;;;13.40
26158;BMP280;67284;44.782;10.282;2023-11-21T00:05:10;100370.63;;;13.41
26158;BMP280;67284;44.782;10.282;2023-11-21T00:10:03;100376.75;;;13.37
26158;BMP280;67284;44.782;10.282;2023-11-21T00:14:57;100363.75;;;13.40
26158;BMP280;67284;44.782;10.282;2023-11-21T00:19:49;100337.13;;;13.38
26158;BMP280;67284;44.782;10.282;2023-11-21T00:24:41;100293.19;;;13.38
26158;BMP280;67284;44.782;10.282;2023-11-21T00:29:33;100281.31;;;13.31
26158;BMP280;67284;44.782;10.282;2023-11-21T00:34:25;100270.25;;;13.26
26158;BMP280;67284;44.782;10.282;2023-11-21T00:39:16;100287.50;;;13.25
26158;BMP280;67284;44.782;10.282;2023-11-21T00:44:08;100300.28;;;13.30
26158;BMP280;67284;44.782;10.282;2023-11-21T00:49:00;100306.19;;;13.35
26158;BMP280;67284;44.782;10.282;2023-11-21T00:53:52;100310.47;;;13.36
26158;BMP280;67284;44.782;10.282;2023-11-21T00:58:44;100306.06;;;13.39
26158;BMP280;67284;44.782;10.282;2023-11-21T01:03:38;100306.00;;;13.41
26158;BMP280;67284;44.782;10.282;2023-11-21T01:08:30;100292.25;;;13.40
26158;BMP280;67284;44.782;10.282;2023-11-21T01:13:23;100308.69;;;13.38
26158;BMP280;67284;44.782;10.282;2023-11-21T01:18:14;100319.03;;;13.38
26158;BMP280;67284;44.782;10.282;2023-11-21T01:23:06;100331.88;;;13.41
26158;BMP280;67284;44.782;10.282;2023-11-21T01:27:58;100313.69;;;13.44
26158;BMP280;67284;44.782;10.282;2023-11-21T01:32:50;100313.69;;;13.44
26158;BMP280;67284;44.782;10.282;2023-11-21T01:37:42;100318.09;;;13.40
26158;BMP280;67284;44.782;10.282;2023-11-21T01:42:34;100328.41;;;13.42
26158;BMP280;67284;44.782;10.282;2023-11-21T01:47:26;100318.94;;;13.41
26158;BMP280;67284;44.782;10.282;2023-11-21T01:52:18;100325.06;;;13.37
26158;BMP280;67284;44.782;10.282;2023-11-21T01:57:11;100317.50;;;13.31
26158;BMP280;67284;44.782;10.282;2023-11-21T02:02:06;100320.88;;;13.33
26158;BMP280;67284;44.782;10.282;2023-11-21T02:07:01;100312.41;;;13.28
26158;BMP280;67284;44.782;10.282;2023-11-21T02:11:53;100310.72;;;13.27
26158;BMP280;67284;44.782;10.282;2023-11-21T02:16:50;100296.81;;;13.31
26158;BMP280;67284;44.782;10.282;2023-11-21T02:21:42;100301.28;;;13.24
26158;BMP280;67284;44.782;10.282;2023-11-21T02:26:36;100297.88;;;13.24
26158;BMP280;67284;44.782;10.282;2023-11-21T02:31:28;100297.91;;;13.22
26158;BMP280;67284;44.782;10.282;2023-11-21T02:36:21;100292.78;;;13.21
26158;BMP280;67284;44.782;10.282;2023-11-21T02:41:13;100285.84;;;13.23
26158;BMP280;67284;44.782;10.282;2023-11-21T02:46:05;100277.25;;;13.22
26158;BMP280;67284;44.782;10.282;2023-11-21T02:50:57;100279.88;;;13.21
26158;BMP280;67284;44.782;10.282;2023-11-21T02:55:49;100269.53;;;13.21
26158;BMP280;67284;44.782;10.282;2023-11-21T03:00:41;100266.91;;;13.22
26158;BMP280;67284;44.782;10.282;2023-11-21T03:05:33;100264.47;;;13.18
26158;BMP280;67284;44.782;10.282;2023-11-21T03:10:27;100255.75;;;13.22
26158;BMP280;67284;44.782;10.282;2023-11-21T03:15:19;100248.09;;;13.19
26158;BMP280;67284;44.782;10.282;2023-11-21T03:20:11;100252.34;;;13.20
26158;BMP280;67284;44.782;10.282;2023-11-21T03:25:06;100251.50;;;13.19
26158;BMP280;67284;44.782;10.282;2023-11-21T03:30:02;100245.50;;;13.19
26158;BMP280;67284;44.782;10.282;2023-11-21T03:34:57;100243.75;;;13.19
26158;BMP280;67284;44.782;10.282;2023-11-21T03:39:50;100244.59;;;13.20
26158;BMP280;67284;44.782;10.282;2023-11-21T03:44:42;100244.59;;;13.20
26158;BMP280;67284;44.782;10.282;2023-11-21T03:49:34;100248.09;;;13.17
26158;BMP280;67284;44.782;10.282;2023-11-21T03:54:26;100242.19;;;13.14
26158;BMP280;67284;44.782;10.282;2023-11-21T03:59:18;100239.59;;;13.14
26158;BMP280;67284;44.782;10.282;2023-11-21T04:04:10;100230.16;;;13.13
26158;BMP280;67284;44.782;10.282;2023-11-21T04:09:02;100237.81;;;13.16
26158;BMP280;67284;44.782;10.282;2023-11-21T04:13:56;100253.38;;;13.13
26158;BMP280;67284;44.782;10.282;2023-11-21T04:18:48;100256.06;;;13.10
26158;BMP280;67284;44.782;10.282;2023-11-21T04:23:39;100246.56;;;13.10
26158;BMP280;67284;44.782;10.282;2023-11-21T04:28:31;100254.31;;;13.12
26158;BMP280;67284;44.782;10.282;2023-11-21T04:33:23;100256.09;;;13.08
26158;BMP280;67284;44.782;10.282;2023-11-21T04:38:17;100244.97;;;13.06
26158;BMP280;67284;44.782;10.282;2023-11-21T04:43:09;100244.03;;;13.09
26158;BMP280;67284;44.782;10.282;2023-11-21T04:48:01;100249.13;;;13.12
26158;BMP280;67284;44.782;10.282;2023-11-21T04:52:53;100256.91;;;13.10
26158;BMP280;67284;44.782;10.282;2023-11-21T04:57:45;100249.28;;;13.06
26158;BMP280;67284;44.782;10.282;2023-11-21T05:02:40;100257.03;;;13.06
26158;BMP280;67284;44.782;10.282;2023-11-21T05:07:33;100250.91;;;13.10
26158;BMP280;67284;44.782;10.282;2023-11-21T05:12:27;100246.56;;;13.10
26158;BMP280;67284;44.782;10.282;2023-11-21T05:17:19;100256.09;;;13.08
26158;BMP280;67284;44.782;10.282;2023-11-21T05:22:11;100268.19;;;13.08
26158;BMP280;67284;44.782;10.282;2023-11-21T05:27:03;100268.28;;;13.05
26158;BMP280;67284;44.782;10.282;2023-11-21T05:31:55;100262.16;;;13.07
26158;BMP280;67284;44.782;10.282;2023-11-21T05:36:47;100247.38;;;13.12
26158;BMP280;67284;44.782;10.282;2023-11-21T05:41:39;100245.78;;;13.08
26158;BMP280;67284;44.782;10.282;2023-11-21T05:46:31;100244.13;;;13.06
26158;BMP280;67284;44.782;10.282;2023-11-21T05:51:23;100253.59;;;13.05
26158;BMP280;67284;44.782;10.282;2023-11-21T05:56:15;100262.28;;;13.03
26158;BMP280;67284;44.782;10.282;2023-11-21T06:01:07;100263.16;;;13.02
26158;BMP280;67284;44.782;10.282;2023-11-21T06:06:04;100275.28;;;13.00
26158;BMP280;67284;44.782;10.282;2023-11-21T06:10:56;100258.06;;;12.99
26158;BMP280;67284;44.782;10.282;2023-11-21T06:15:48;100258.06;;;12.99
26158;BMP280;67284;44.782;10.282;2023-11-21T06:20:40;100268.47;;;12.96
26158;BMP280;67284;44.782;10.282;2023-11-21T06:25:32;100261.53;;;13.00
26158;BMP280;67284;44.782;10.282;2023-11-21T06:30:27;100246.91;;;12.99
26158;BMP280;67284;44.782;10.282;2023-11-21T06:35:20;100245.06;;;13.02
26158;BMP280;67284;44.782;10.282;2023-11-21T06:40:13;100240.72;;;13.04
26158;BMP280;67284;44.782;10.282;2023-11-21T06:45:07;100239.94;;;13.00
26158;BMP280;67284;44.782;10.282;2023-11-21T06:49:59;100224.59;;;12.96
26158;BMP280;67284;44.782;10.282;2023-11-21T06:54:52;100230.63;;;12.95
26158;BMP280;67284;44.782;10.282;2023-11-21T06:59:44;100238.28;;;13.00
26158;BMP280;67284;44.782;10.282;2023-11-21T07:04:36;100240.91;;;12.98
26158;BMP280;67284;44.782;10.282;2023-11-21T07:09:28;100232.25;;;12.99
26158;BMP280;67284;44.782;10.282;2023-11-21T07:14:20;100229.63;;;13.00
26158;BMP280;67284;44.782;10.282;2023-11-21T07:19:13;100216.88;;;12.95
26158;BMP280;67284;44.782;10.282;2023-11-21T07:24:06;100222.91;;;12.94
26158;BMP280;67284;44.782;10.282;2023-11-21T07:28:58;100218.59;;;12.96
26158;BMP280;67284;44.782;10.282;2023-11-21T07:33:50;100220.38;;;12.92
26158;BMP280;67284;44.782;10.282;2023-11-21T07:38:42;100232.34;;;12.96
26158;BMP280;67284;44.782;10.282;2023-11-21T07:43:35;100227.88;;;13.02
26158;BMP280;67284;44.782;10.282;2023-11-21T07:48:27;100223.56;;;13.01
26158;BMP280;67284;44.782;10.282;2023-11-21T07:53:19;100234.03;;;12.97
26158;BMP280;67284;44.782;10.282;2023-11-21T07:58:11;100238.41;;;12.94
26158;BMP280;67284;44.782;10.282;2023-11-21T08:03:04;100235.00;;;12.93
26158;BMP280;67284;44.782;10.282;2023-11-21T08:07:56;100236.75;;;12.93
26158;BMP280;67284;44.782;10.282;2023-11-21T08:12:48;100229.00;;;12.93
26158;BMP280;67284;44.782;10.282;2023-11-21T08:17:40;100231.59;;;12.93
26158;BMP280;67284;44.782;10.282;2023-11-21T08:22:32;100240.91;;;12.98
26158;BMP280;67284;44.782;10.282;2023-11-21T08:27:23;100237.31;;;13.02
26158;BMP280;67284;44.782;10.282;2023-11-21T08:32:15;100234.75;;;13.02
26158;BMP280;67284;44.782;10.282;2023-11-21T08:37:07;100240.69;;;13.05
26158;BMP280;67284;44.782;10.282;2023-11-21T08:41:59;100233.78;;;13.06
26158;BMP280;67284;44.782;10.282;2023-11-21T08:46:51;100236.31;;;13.07
26158;BMP280;67284;44.782;10.282;2023-11-21T08:51:44;100236.28;;;13.09
26158;BMP280;67284;44.782;10.282;2023-11-21T08:56:36;100242.56;;;12.99
26158;BMP280;67284;44.782;10.282;2023-11-21T09:01:29;100246.00;;;13.01
26158;BMP280;67284;44.782;10.282;2023-11-21T09:06:23;100245.06;;;13.02
26158;BMP280;67284;44.782;10.282;2023-11-21T09:11:16;100258.94;;;13.00
26158;BMP280;67284;44.782;10.282;2023-11-21T09:16:08;100250.28;;;13.00
26158;BMP280;67284;44.782;10.282;2023-11-21T09:21:00;100258.03;;;13.00
26158;BMP280;67284;44.782;10.282;2023-11-21T09:25:52;100246.00;;;13.01
26158;BMP280;67284;44.782;10.282;2023-11-21T09:30:48;100244.28;;;13.00
26158;BMP280;67284;44.782;10.282;2023-11-21T09:35:41;100254.69;;;12.97
26158;BMP280;67284;44.782;10.282;2023-11-21T09:40:35;100237.41;;;12.99
26158;BMP280;67284;44.782;10.282;2023-11-21T09:45:32;100232.16;;;13.02
26158;BMP280;67284;44.782;10.282;2023-11-21T09:50:26;100241.56;;;13.04
26158;BMP280;67284;44.782;10.282;2023-11-21T09:55:18;100225.19;;;13.05
26158;BMP280;67284;44.782;10.282;2023-11-21T10:00:13;100216.59;;;13.05
26158;BMP280;67284;44.782;10.282;2023-11-21T10:05:09;100199.31;;;13.07
26158;BMP280;67284;44.782;10.282;2023-11-21T10:10:05;100208.00;;;13.04
26158;BMP280;67284;44.782;10.282;2023-11-21T10:14:57;100188.94;;;13.08
26158;BMP280;67284;44.782;10.282;2023-11-21T10:19:52;100166.50;;;13.10
26158;BMP280;67284;44.782;10.282;2023-11-21T10:24:45;100173.31;;;13.13
26158;BMP280;67284;44.782;10.282;2023-11-21T10:29:44;100166.44;;;13.13
26158;BMP280;67284;44.782;10.282;2023-11-21T10:34:36;100164.66;;;13.15
26158;BMP280;67284;44.782;10.282;2023-11-21T10:39:28;100167.28;;;13.14
26158;BMP280;67284;44.782;10.282;2023-11-21T10:44:22;100157.72;;;13.16
26158;BMP280;67284;44.782;10.282;2023-11-21T10:49:24;100160.31;;;13.16
26158;BMP280;67284;44.782;10.282;2023-11-21T10:54:20;100145.63;;;13.18
26158;BMP280;67284;44.782;10.282;2023-11-21T10:59:12;100149.78;;;13.23
26158;BMP280;67284;44.782;10.282;2023-11-21T11:04:07;100153.19;;;13.24
26158;BMP280;67284;44.782;10.282;2023-11-21T11:09:06;100152.22;;;13.28
26158;BMP280;67284;44.782;10.282;2023-11-21T11:14:00;100159.09;;;13.29
26158;BMP280;67284;44.782;10.282;2023-11-21T11:18:52;100152.13;;;13.31
26158;BMP280;67284;44.782;10.282;2023-11-21T11:34:29;100153.75;;;13.35
26158;BMP280;67284;44.782;10.282;2023-11-21T11:39:42;100149.41;;;13.35
26158;BMP280;67284;44.782;10.282;2023-11-21T11:49:57;100157.03;;;13.40
26158;BMP280;67284;44.782;10.282;2023-11-21T11:54:49;100153.56;;;13.41
26158;BMP280;67284;44.782;10.282;2023-11-21T12:00:10;100154.38;;;13.41
26158;BMP280;67284;44.782;10.282;2023-11-21T12:05:11;100156.03;;;13.44
26158;BMP280;67284;44.782;10.282;2023-11-21T12:10:05;100152.72;;;13.40
26158;BMP280;67284;44.782;10.282;2023-11-21T12:14:57;100156.03;;;13.44
26158;BMP280;67284;44.782;10.282;2023-11-21T12:19:49;100150.72;;;13.48
26158;BMP280;67284;44.782;10.282;2023-11-21T12:24:44;100150.66;;;13.51
26158;BMP280;67284;44.782;10.282;2023-11-21T12:29:35;100146.34;;;13.52
26158;BMP280;67284;44.782;10.282;2023-11-21T12:34:29;100140.28;;;13.52
26158;BMP280;67284;44.782;10.282;2023-11-21T12:39:22;100139.38;;;13.53
26158;BMP280;67284;44.782;10.282;2023-11-21T12:44:14;100141.94;;;13.53
26158;BMP280;67284;44.782;10.282;2023-11-21T12:49:07;100133.31;;;13.54
26158;BMP280;67284;44.782;10.282;2023-11-21T12:53:59;100129.84;;;13.55
26158;BMP280;67284;44.782;10.282;2023-11-21T12:58:53;100124.78;;;13.52
26158;BMP280;67284;44.782;10.282;2023-11-21T13:03:47;100120.50;;;13.52
26158;BMP280;67284;44.782;10.282;2023-11-21T13:08:40;100111.13;;;13.48
26158;BMP280;67284;44.782;10.282;2023-11-21T13:13:32;100118.09;;;13.46
26158;BMP280;67284;44.782;10.282;2023-11-21T13:18:25;100125.97;;;13.41
26158;BMP280;67284;44.782;10.282;2023-11-21T13:23:19;100110.47;;;13.41
26158;BMP280;67284;44.782;10.282;2023-11-21T13:28:12;100113.81;;;13.45
26158;BMP280;67284;44.782;10.282;2023-11-21T13:33:06;100118.16;;;13.44
26158;BMP280;67284;44.782;10.282;2023-11-21T13:38:06;100120.84;;;13.40
26158;BMP280;67284;44.782;10.282;2023-11-21T13:42:59;100124.34;;;13.39
26158;BMP280;67284;44.782;10.282;2023-11-21T13:47:52;100123.44;;;13.40
26158;BMP280;67284;44.782;10.282;2023-11-21T13:52:49;100135.38;;;13.44
26158;BMP280;67284;44.782;10.282;2023-11-21T13:57:45;100135.31;;;13.45
26158;BMP280;67284;44.782;10.282;2023-11-21T14:02:41;100133.50;;;13.49
26158;BMP280;67284;44.782;10.282;2023-11-21T14:07:35;100135.16;;;13.51
26158;BMP280;67284;44.782;10.282;2023-11-21T14:12:27;100132.56;;;13.51
26158;BMP280;67284;44.782;10.282;2023-11-21T14:17:20;100142.03;;;13.51
26158;BMP280;67284;44.782;10.282;2023-11-21T14:22:13;100144.63;;;13.51
26158;BMP280;67284;44.782;10.282;2023-11-21T14:27:05;100138.63;;;13.50
26158;BMP280;67284;44.782;10.282;2023-11-21T14:31:57;100143.69;;;13.53
26158;BMP280;67284;44.782;10.282;2023-11-21T14:36:50;100149.59;;;13.56
26158;BMP280;67284;44.782;10.282;2023-11-21T14:41:42;100153.06;;;13.57
26158;BMP280;67284;44.782;10.282;2023-11-21T14:46:35;100154.78;;;13.56
26158;BMP280;67284;44.782;10.282;2023-11-21T14:51:28;100156.47;;;13.57
26158;BMP280;67284;44.782;10.282;2023-11-21T14:56:23;100149.59;;;13.56
26158;BMP280;67284;44.782;10.282;2023-11-21T15:01:26;100148.81;;;13.54
26158;BMP280;67284;44.782;10.282;2023-11-21T15:06:41;100161.75;;;13.54
26158;BMP280;67284;44.782;10.282;2023-11-21T15:11:35;100170.38;;;13.53
26158;BMP280;67284;44.782;10.282;2023-11-21T15:16:29;100158.38;;;13.52
26158;BMP280;67284;44.782;10.282;2023-11-21T15:21:20;100166.09;;;13.54
26158;BMP280;67284;44.782;10.282;2023-11-21T15:26:13;100157.47;;;13.53
26158;BMP280;67284;44.782;10.282;2023-11-21T15:31:05;100161.84;;;13.52
26158;BMP280;67284;44.782;10.282;2023-11-21T15:35:59;100172.09;;;13.54
26158;BMP280;67284;44.782;10.282;2023-11-21T15:40:51;100179.78;;;13.56
26158;BMP280;67284;44.782;10.282;2023-11-21T15:45:43;100183.19;;;13.58
26158;BMP280;67284;44.782;10.282;2023-11-21T15:50:34;100177.06;;;13.60
26158;BMP280;67284;44.782;10.282;2023-11-21T15:55:27;100181.41;;;13.60
26158;BMP280;67284;44.782;10.282;2023-11-21T16:00:19;100201.16;;;13.62
26158;BMP280;67284;44.782;10.282;2023-11-21T16:05:13;100201.94;;;13.64
26158;BMP280;67284;44.782;10.282;2023-11-21T16:10:07;100201.06;;;13.65
26158;BMP280;67284;44.782;10.282;2023-11-21T16:14:59;100201.06;;;13.65
26158;BMP280;67284;44.782;10.282;2023-11-21T16:19:53;100203.63;;;13.65
26158;BMP280;67284;44.782;10.282;2023-11-21T16:24:47;100211.41;;;13.65
26158;BMP280;67284;44.782;10.282;2023-11-21T16:29:42;100211.41;;;13.65
26158;BMP280;67284;44.782;10.282;2023-11-21T16:34:34;100213.16;;;13.63
26158;BMP280;67284;44.782;10.282;2023-11-21T16:39:27;100218.41;;;13.60
26158;BMP280;67284;44.782;10.282;2023-11-21T16:44:20;100217.63;;;13.58
26158;BMP280;67284;44.782;10.282;2023-11-21T16:49:13;100233.19;;;13.57
26158;BMP280;67284;44.782;10.282;2023-11-21T16:54:05;100230.66;;;13.55
26158;BMP280;67284;44.782;10.282;2023-11-21T16:58:57;100235.88;;;13.54
26158;BMP280;67284;44.782;10.282;2023-11-21T17:03:49;100242.75;;;13.53
26158;BMP280;67284;44.782;10.282;2023-11-21T17:08:43;100246.19;;;13.54
26158;BMP280;67284;44.782;10.282;2023-11-21T17:13:36;100262.53;;;13.54
26158;BMP280;67284;44.782;10.282;2023-11-21T17:18:28;100275.47;;;13.54
26158;BMP280;67284;44.782;10.282;2023-11-21T17:23:20;100275.50;;;13.53
26158;BMP280;67284;44.782;10.282;2023-11-21T17:28:12;100284.28;;;13.48
26158;BMP280;67284;44.782;10.282;2023-11-21T17:33:05;100281.75;;;13.46
26158;BMP280;67284;44.782;10.282;2023-11-21T17:37:58;100284.28;;;13.48
26158;BMP280;67284;44.782;10.282;2023-11-21T17:42:51;100286.69;;;13.53
26158;BMP280;67284;44.782;10.282;2023-11-21T17:47:43;100287.44;;;13.58
26158;BMP280;67284;44.782;10.282;2023-11-21T17:52:35;100301.91;;;13.64
26158;BMP280;67284;44.782;10.282;2023-11-21T17:57:28;100307.00;;;13.67
26158;BMP280;67284;44.782;10.282;2023-11-21T18:02:20;100299.25;;;13.67
26158;BMP280;67284;44.782;10.282;2023-11-21T18:07:13;100304.47;;;13.65
26158;BMP280;67284;44.782;10.282;2023-11-21T18:12:07;100307.00;;;13.67
26158;BMP280;67284;44.782;10.282;2023-11-21T18:16:59;100307.75;;;13.70
26158;BMP280;67284;44.782;10.282;2023-11-21T18:21:51;100304.28;;;13.71
26158;BMP280;67284;44.782;10.282;2023-11-21T18:26:42;100305.09;;;13.73
26158;BMP280;67284;44.782;10.282;2023-11-21T18:31:34;100307.69;;;13.73
26158;BMP280;67284;44.782;10.282;2023-11-21T18:36:26;100308.53;;;13.74
26158;BMP280;67284;44.782;10.282;2023-11-21T18:41:22;100315.41;;;13.75
26158;BMP280;67284;44.782;10.282;2023-11-21T18:46:14;100321.50;;;13.72
26158;BMP280;67284;44.782;10.282;2023-11-21T18:51:09;100327.47;;;13.74
26158;BMP280;67284;44.782;10.282;2023-11-21T18:56:01;100329.25;;;13.72
26158;BMP280;67284;44.782;10.282;2023-11-21T19:00:53;100335.31;;;13.71
26158;BMP280;67284;44.782;10.282;2023-11-21T19:05:45;100344.81;;;13.71
26158;BMP280;67284;44.782;10.282;2023-11-21T19:10:37;100345.66;;;13.71
26158;BMP280;67284;44.782;10.282;2023-11-21T19:15:29;100356.81;;;13.72
26158;BMP280;67284;44.782;10.282;2023-11-21T19:20:21;100359.41;;;13.73
26158;BMP280;67284;44.782;10.282;2023-11-21T19:25:15;100363.66;;;13.74
26158;BMP280;67284;44.782;10.282;2023-11-21T19:30:07;100355.91;;;13.74
26158;BMP280;67284;44.782;10.282;2023-11-21T19:35:03;100362.81;;;13.74
26158;BMP280;67284;44.782;10.282;2023-11-21T19:39:55;100359.41;;;13.73
26158;BMP280;67284;44.782;10.282;2023-11-21T19:44:47;100362.03;;;13.70
26158;BMP280;67284;44.782;10.282;2023-11-21T19:49:39;100363.84;;;13.68
26158;BMP280;67284;44.782;10.282;2023-11-21T19:54:31;100373.34;;;13.68
26158;BMP280;67284;44.782;10.282;2023-11-21T19:59:23;100376.75;;;13.68
26158;BMP280;67284;44.782;10.282;2023-11-21T20:04:15;100374.19;;;13.68
26158;BMP280;67284;44.782;10.282;2023-11-21T20:09:07;100389.66;;;13.70
26158;BMP280;67284;44.782;10.282;2023-11-21T20:14:01;100392.28;;;13.68
26158;BMP280;67284;44.782;10.282;2023-11-21T20:18:54;100394.91;;;13.67
26158;BMP280;67284;44.782;10.282;2023-11-21T20:23:47;100408.72;;;13.66
26158;BMP280;67284;44.782;10.282;2023-11-21T20:28:41;100424.22;;;13.66
26158;BMP280;67284;44.782;10.282;2023-11-21T20:33:34;100422.50;;;13.65
26158;BMP280;67284;44.782;10.282;2023-11-21T20:38:26;100427.69;;;13.66
26158;BMP280;67284;44.782;10.282;2023-11-21T20:43:19;100429.38;;;13.66
26158;BMP280;67284;44.782;10.282;2023-11-21T20:48:11;100438.91;;;13.65
26158;BMP280;67284;44.782;10.282;2023-11-21T20:53:03;100446.66;;;13.65
26158;BMP280;67284;44.782;10.282;2023-11-21T20:57:59;100446.69;;;13.64
26158;BMP280;67284;44.782;10.282;2023-11-21T21:02:51;100451.00;;;13.63
26158;BMP280;67284;44.782;10.282;2023-11-21T21:07:44;100456.25;;;13.60
26158;BMP280;67284;44.782;10.282;2023-11-21T21:12:36;100461.38;;;13.62
26158;BMP280;67284;44.782;10.282;2023-11-21T21:17:29;100458.75;;;13.63
26158;BMP280;67284;44.782;10.282;2023-11-21T21:22:21;100459.66;;;13.62
26158;BMP280;67284;44.782;10.282;2023-11-21T21:27:13;100464.00;;;13.60
26158;BMP280;67284;44.782;10.282;2023-11-21T21:32:05;100458.03;;;13.58
26158;BMP280;67284;44.782;10.282;2023-11-21T21:36:58;100453.81;;;13.54
26158;BMP280;67284;44.782;10.282;2023-11-21T21:41:51;100459.91;;;13.52
26158;BMP280;67284;44.782;10.282;2023-11-21T21:46:43;100455.66;;;13.51
26158;BMP280;67284;44.782;10.282;2023-11-21T21:51:35;100468.59;;;13.51
26158;BMP280;67284;44.782;10.282;2023-11-21T21:56:28;100468.59;;;13.50
26158;BMP280;67284;44.782;10.282;2023-11-21T22:01:20;100470.25;;;13.52
26158;BMP280;67284;44.782;10.282;2023-11-21T22:06:12;100469.47;;;13.50
26158;BMP280;67284;44.782;10.282;2023-11-21T22:11:04;100466.91;;;13.49
26158;BMP280;67284;44.782;10.282;2023-11-21T22:15:57;100472.09;;;13.49
26158;BMP280;67284;44.782;10.282;2023-11-21T22:20:48;100471.22;;;13.48
26158;BMP280;67284;44.782;10.282;2023-11-21T22:25:40;100478.16;;;13.46
26158;BMP280;67284;44.782;10.282;2023-11-21T22:30:32;100490.22;;;13.47
26158;BMP280;67284;44.782;10.282;2023-11-21T22:35:25;100498.00;;;13.46
26158;BMP280;67284;44.782;10.282;2023-11-21T22:40:17;100486.78;;;13.45
26158;BMP280;67284;44.782;10.282;2023-11-21T22:45:10;100490.25;;;13.46
26158;BMP280;67284;44.782;10.282;2023-11-21T22:50:03;100492.00;;;13.44
26158;BMP280;67284;44.782;10.282;2023-11-21T22:54:56;100494.66;;;13.41
26158;BMP280;67284;44.782;10.282;2023-11-21T22:59:48;100492.16;;;13.38
26158;BMP280;67284;44.782;10.282;2023-11-21T23:04:42;100489.66;;;13.35
26158;BMP280;67284;44.782;10.282;2023-11-21T23:09:34;100482.88;;;13.31
26158;BMP280;67284;44.782;10.282;2023-11-21T23:14:27;100483.78;;;13.28
26158;BMP280;67284;44.782;10.282;2023-11-21T23:19:19;100485.44;;;13.31
26158;BMP280;67284;44.782;10.282;2023-11-21T23:24:12;100486.25;;;13.33
26158;BMP280;67284;44.782;10.282;2023-11-21T23:29:10;100486.19;;;13.36
26158;BMP280;67284;44.782;10.282;2023-11-21T23:34:02;100496.66;;;13.30
26158;BMP280;67284;44.782;10.282;2023-11-21T23:38:54;100487.31;;;13.24
26158;BMP280;67284;44.782;10.282;2023-11-21T23:43:46;100476.97;;;13.24
26158;BMP280;67284;44.782;10.282;2023-11-21T23:48:38;100483.00;;;13.25
26158;BMP280;67284;44.782;10.282;2023-11-21T23:53:30;100490.88;;;13.20
26158;BMP280;67284;44.782;10.282;2023-11-21T23:58:22;100490.06;;;13.18
